Time;durP1;ratioP1;P1;durP2;ratioP2;P2;SDS_P1;SDS_P2;PMS_P1;PMS_P2;Temp;Humidity;BMP_temperature;BMP_pressure;BME280_temperature;BME280_humidity;BME280_pressure;Samples;Min_cycle;Max_cycle;Signal;HPM_P1;HPM_P2
2021/12/09 00:01:02;;;;;;;4.43;3.30;;;27.40;99.90;;;;;;5089269;28;20019;-71
2021/12/09 00:03:34;;;;;;;7.95;3.75;;;27.30;99.90;;;;;;5091862;28;20508;-73
2021/12/09 00:06:03;;;;;;;5.65;2.60;;;27.30;99.60;;;;;;5088479;28;20020;-71
2021/12/09 00:08:31;;;;;;;3.10;2.13;;;27.60;98.70;;;;;;5091698;28;20016;-73
2021/12/09 00:11:01;;;;;;;4.30;2.22;;;27.80;98.00;;;;;;5089338;28;20024;-77
2021/12/09 00:13:29;;;;;;;5.25;2.85;;;28.10;96.90;;;;;;5090389;28;20023;-75
2021/12/09 00:15:58;;;;;;;3.20;2.45;;;28.40;97.00;;;;;;5089222;28;20499;-76
2021/12/09 00:18:25;;;;;;;2.95;2.15;;;28.60;95.90;;;;;;5090321;28;20115;-76
2021/12/09 00:20:53;;;;;;;5.75;3.20;;;29.10;96.60;;;;;;5091673;28;20028;-77
2021/12/09 00:23:20;;;;;;;4.22;2.20;;;29.10;90.90;;;;;;5091155;28;20020;-76
2021/12/09 00:25:47;;;;;;;3.35;1.92;;;28.90;92.60;;;;;;5091517;28;20035;-72
2021/12/09 00:28:14;;;;;;;2.80;2.00;;;28.50;94.50;;;;;;5091160;28;20016;-76
2021/12/09 00:30:41;;;;;;;2.78;1.90;;;28.20;93.80;;;;;;5091813;28;20023;-76
2021/12/09 00:33:10;;;;;;;6.13;3.70;;;28.30;93.20;;;;;;5091546;28;20096;-73
2021/12/09 00:35:53;;;;;;;4.65;4.00;;;28.50;93.60;;;;;;5089427;28;20020;-77
2021/12/09 00:38:32;;;;;;;2.95;1.92;;;28.70;93.30;;;;;;5089110;28;20104;-76
2021/12/09 00:41:00;;;;;;;2.00;1.60;;;28.70;93.40;;;;;;5089275;28;20027;-76
2021/12/09 00:43:28;;;;;;;2.58;1.73;;;29.00;92.70;;;;;;5091188;28;20032;-77
2021/12/09 00:45:57;;;;;;;2.70;2.00;;;28.90;90.90;;;;;;5089546;28;20068;-73
2021/12/09 00:48:25;;;;;;;3.92;2.28;;;28.80;90.00;;;;;;5091203;28;20020;-77
2021/12/09 00:50:54;;;;;;;2.90;2.08;;;28.40;92.70;;;;;;5091111;28;20361;-76
2021/12/09 00:53:22;;;;;;;3.15;1.83;;;28.20;93.30;;;;;;5091235;28;20035;-77
2021/12/09 00:55:49;;;;;;;5.00;1.98;;;27.70;92.90;;;;;;5091214;28;20158;-73
2021/12/09 00:58:16;;;;;;;3.10;2.00;;;27.20;93.90;;;;;;5091526;28;20024;-77
2021/12/09 01:00:43;;;;;;;3.50;2.15;;;26.90;95.20;;;;;;5095310;28;20479;-72
2021/12/09 01:03:10;;;;;;;2.50;1.63;;;27.50;93.90;;;;;;5094589;28;20020;-77
2021/12/09 01:05:37;;;;;;;9.10;2.38;;;28.00;93.90;;;;;;5093199;28;20025;-76
2021/12/09 01:08:05;;;;;;;3.55;1.85;;;28.90;92.60;;;;;;5095425;28;20020;-72
2021/12/09 01:10:32;;;;;;;2.83;1.58;;;29.40;89.00;;;;;;5094808;28;20488;-74
2021/12/09 01:13:00;;;;;;;2.88;1.65;;;29.60;91.90;;;;;;5094752;28;20074;-77
2021/12/09 01:15:27;;;;;;;2.92;1.75;;;29.80;90.50;;;;;;5094898;28;20034;-76
2021/12/09 01:17:54;;;;;;;4.05;1.73;;;29.40;91.10;;;;;;5095276;28;20024;-72
2021/12/09 01:20:26;;;;;;;2.17;1.65;;;29.10;87.10;;;;;;5093378;28;20036;-72
2021/12/09 01:22:55;;;;;;;3.22;1.60;;;28.60;84.30;;;;;;5094934;28;20024;-75
2021/12/09 01:25:24;;;;;;;2.28;1.52;;;28.30;90.20;;;;;;5091573;28;20020;-77
2021/12/09 01:27:54;;;;;;;2.17;1.30;;;28.70;87.20;;;;;;5093034;28;20020;-73
2021/12/09 01:30:23;;;;;;;1.73;1.17;;;29.20;90.10;;;;;;5092548;28;20020;-72
2021/12/09 01:32:54;;;;;;;1.20;1.10;;;29.60;85.20;;;;;;5092178;28;20066;-72
2021/12/09 01:35:36;;;;;;;1.88;1.23;;;29.80;88.30;;;;;;5090238;28;20454;-71
2021/12/09 01:38:13;;;;;;;2.65;1.48;;;30.40;85.40;;;;;;5090712;28;20066;-73
2021/12/09 01:40:40;;;;;;;2.13;1.30;;;30.00;82.30;;;;;;5088488;28;20107;-77
2021/12/09 01:43:08;;;;;;;2.42;1.23;;;28.90;85.20;;;;;;5091120;28;20026;-76
2021/12/09 01:45:35;;;;;;;3.65;1.70;;;28.40;88.10;;;;;;5091817;28;20048;-73
2021/12/09 01:48:03;;;;;;;3.33;2.20;;;28.60;90.00;;;;;;5092055;28;20019;-73
2021/12/09 01:50:32;;;;;;;2.85;1.52;;;29.30;91.90;;;;;;5092203;28;20108;-73
2021/12/09 01:52:59;;;;;;;1.95;1.30;;;29.80;82.70;;;;;;5090166;28;20040;-76
2021/12/09 01:55:27;;;;;;;2.42;1.40;;;30.20;82.40;;;;;;5092316;28;20083;-72
2021/12/09 01:57:54;;;;;;;3.95;1.50;;;30.10;85.70;;;;;;5091988;28;20126;-72
2021/12/09 02:00:26;;;;;;;2.53;1.60;;;30.00;85.60;;;;;;5092163;28;20035;-72
2021/12/09 02:02:54;;;;;;;2.58;1.20;;;29.90;81.10;;;;;;5090097;28;20094;-77
2021/12/09 02:05:21;;;;;;;2.20;1.40;;;30.00;79.00;;;;;;5091661;28;20035;-75
2021/12/09 02:07:48;;;;;;;3.90;2.08;;;30.40;80.30;;;;;;5092660;28;20019;-78
2021/12/09 02:10:19;;;;;;;1.58;1.45;;;30.80;78.20;;;;;;5090958;28;20021;-72
2021/12/09 02:12:49;;;;;;;1.42;1.20;;;30.70;78.20;;;;;;5092960;28;20028;-75
2021/12/09 02:15:18;;;;;;;4.43;1.13;;;30.00;76.90;;;;;;5091520;28;20024;-77
2021/12/09 02:17:45;;;;;;;2.13;1.27;;;29.70;77.40;;;;;;4386967;28;10000818;-75
2021/12/09 02:20:12;;;;;;;1.85;1.20;;;29.40;81.50;;;;;;5090544;28;20022;-78
2021/12/09 02:22:43;;;;;;;1.90;1.40;;;30.00;82.60;;;;;;5090269;28;20050;-77
2021/12/09 02:25:10;;;;;;;1.95;1.00;;;30.40;76.90;;;;;;5089034;28;20573;-74
2021/12/09 02:27:37;;;;;;;2.50;0.95;;;31.20;74.20;;;;;;5083586;28;20036;-78
2021/12/09 02:30:05;;;;;;;2.65;1.08;;;31.40;74.50;;;;;;5089556;28;20031;-73
2021/12/09 02:32:32;;;;;;;2.45;1.17;;;31.80;69.20;;;;;;5088750;28;20043;-75
2021/12/09 02:34:59;;;;;;;2.25;1.10;;;32.50;69.00;;;;;;5090193;28;20047;-74
2021/12/09 02:37:26;;;;;;;3.53;1.15;;;32.80;68.90;;;;;;5088999;28;20038;-74
2021/12/09 02:39:55;;;;;;;1.23;1.00;;;32.80;66.20;;;;;;5088989;28;20016;-74
2021/12/09 02:42:24;;;;;;;2.83;1.63;;;31.90;65.40;;;;;;5091013;28;20031;-74
2021/12/09 02:44:54;;;;;;;1.50;1.05;;;31.00;68.70;;;;;;5090800;28;20447;-74
2021/12/09 02:47:22;;;;;;;2.38;2.00;;;30.00;72.10;;;;;;5089661;28;20028;-74
2021/12/09 02:49:49;;;;;;;11.48;8.57;;;29.30;75.90;;;;;;5089031;28;20035;-75
2021/12/09 02:52:16;;;;;;;4.90;2.70;;;29.00;72.30;;;;;;5090037;28;20060;-75
2021/12/09 02:54:43;;;;;;;2.00;1.40;;;28.50;78.10;;;;;;5086779;28;20073;-72
2021/12/09 02:57:11;;;;;;;1.50;1.02;;;28.10;77.70;;;;;;5088656;28;20073;-75
2021/12/09 02:59:38;;;;;;;3.17;1.08;;;27.90;82.50;;;;;;5089086;28;20024;-73
2021/12/09 03:02:07;;;;;;;2.17;1.02;;;27.80;81.20;;;;;;5088521;28;20104;-76
2021/12/09 03:04:48;;;;;;;2.33;1.13;;;27.70;83.20;;;;;;5088376;28;20016;-73
2021/12/09 03:07:41;;;;;;;3.58;1.75;;;28.00;81.60;;;;;;5088788;28;20048;-73
2021/12/09 03:10:20;;;;;;;5.72;1.98;;;28.40;85.30;;;;;;5088996;28;20016;-73
2021/12/09 03:13:10;;;;;;;4.45;1.83;;;28.90;87.30;;;;;;5088518;28;20024;-73
2021/12/09 03:15:37;;;;;;;3.90;1.83;;;28.60;87.20;;;;;;5088570;28;20026;-72
2021/12/09 03:18:04;;;;;;;3.85;1.83;;;28.50;88.00;;;;;;5083310;28;20027;-72
2021/12/09 03:20:31;;;;;;;4.90;2.13;;;28.30;89.90;;;;;;5088578;28;20028;-73
2021/12/09 03:22:58;;;;;;;5.07;1.65;;;27.60;90.40;;;;;;5087349;28;20051;-73
2021/12/09 03:25:25;;;;;;;5.93;1.50;;;27.30;91.60;;;;;;5087350;28;20063;-72
2021/12/09 03:27:52;;;;;;;5.72;2.20;;;27.40;91.80;;;;;;5088165;28;20025;-73
2021/12/09 03:30:20;;;;;;;4.10;1.70;;;27.30;92.00;;;;;;5088110;28;20096;-75
2021/12/09 03:32:48;;;;;;;5.63;1.90;;;27.70;93.80;;;;;;5088071;28;20428;-72
2021/12/09 03:35:15;;;;;;;4.70;2.42;;;28.90;91.50;;;;;;5088299;28;20028;-72
2021/12/09 03:37:43;;;;;;;4.97;1.75;;;29.70;90.20;;;;;;5086796;28;20559;-73
2021/12/09 03:40:11;;;;;;;5.93;2.13;;;29.90;85.10;;;;;;5086268;28;20055;-75
2021/12/09 03:42:39;;;;;;;7.40;2.25;;;29.40;86.20;;;;;;5086798;28;20034;-73
2021/12/09 03:45:07;;;;;;;5.82;2.03;;;28.90;88.60;;;;;;5086673;28;20101;-74
2021/12/09 03:47:35;;;;;;;6.50;1.80;;;28.60;90.10;;;;;;5081849;28;20109;-72
2021/12/09 03:50:06;;;;;;;5.72;2.00;;;28.20;91.20;;;;;;5085826;28;20032;-72
2021/12/09 03:52:34;;;;;;;7.30;2.57;;;27.60;91.30;;;;;;5087721;28;20032;-72
2021/12/09 03:55:01;;;;;;;5.65;2.08;;;26.90;93.70;;;;;;5088107;28;20028;-70
2021/12/09 03:57:28;;;;;;;3.78;2.10;;;26.50;94.80;;;;;;5087601;28;20032;-73
2021/12/09 03:59:55;;;;;;;4.65;2.53;;;26.40;96.10;;;;;;5084682;28;20032;-73
2021/12/09 04:02:22;;;;;;;5.85;2.20;;;26.60;95.70;;;;;;5085457;28;20123;-74
2021/12/09 04:04:49;;;;;;;6.03;1.83;;;26.90;95.70;;;;;;5082181;28;20020;-73
2021/12/09 04:07:16;;;;;;;5.38;2.35;;;27.00;94.70;;;;;;5086615;28;20073;-74
2021/12/09 04:09:44;;;;;;;5.63;2.22;;;27.40;92.90;;;;;;5086794;28;20110;-74
2021/12/09 04:12:14;;;;;;;7.40;2.67;;;26.90;94.10;;;;;;5087686;28;20024;-74
2021/12/09 04:14:41;;;;;;;8.18;4.13;;;26.50;95.00;;;;;;5086134;28;20024;-72
2021/12/09 04:17:08;;;;;;;8.85;4.10;;;26.20;95.60;;;;;;5081497;28;20028;-68
2021/12/09 04:19:36;;;;;;;9.85;2.30;;;26.50;95.70;;;;;;5084416;28;20392;-69
2021/12/09 04:22:03;;;;;;;4.30;1.98;;;26.30;96.50;;;;;;5084682;28;20020;-68
2021/12/09 04:24:30;;;;;;;3.58;2.05;;;26.00;96.00;;;;;;5083270;28;20024;-69
2021/12/09 04:26:57;;;;;;;6.18;2.30;;;25.60;96.90;;;;;;5084270;28;20050;-66
2021/12/09 04:29:24;;;;;;;5.38;1.92;;;25.30;98.30;;;;;;5082985;28;20020;-66
2021/12/09 04:31:52;;;;;;;6.95;2.17;;;25.20;98.50;;;;;;5084643;28;20024;-68
2021/12/09 04:34:19;;;;;;;5.28;2.42;;;25.20;99.10;;;;;;5083404;28;20127;-68
2021/12/09 04:36:46;;;;;;;6.53;2.80;;;25.30;98.70;;;;;;5084420;28;20476;-69
2021/12/09 04:39:14;;;;;;;4.80;2.35;;;25.20;98.90;;;;;;5083776;28;20034;-66
2021/12/09 04:41:41;;;;;;;4.93;2.20;;;25.10;99.90;;;;;;5082099;28;20024;-68
2021/12/09 04:44:09;;;;;;;5.82;2.00;;;25.00;99.20;;;;;;5101553;28;20019;-69
2021/12/09 04:46:36;;;;;;;11.95;6.00;;;24.80;99.90;;;;;;5102852;28;20031;-67
2021/12/09 04:49:05;;;;;;;5.78;2.55;;;24.80;99.90;;;;;;5102827;28;20031;-70
2021/12/09 04:51:33;;;;;;;4.10;1.98;;;24.70;99.90;;;;;;5103400;28;20027;-69
2021/12/09 04:54:00;;;;;;;7.07;2.95;;;24.70;99.90;;;;;;5102888;28;20359;-67
2021/12/09 04:56:30;;;;;;;5.90;2.20;;;24.40;99.90;;;;;;5103832;28;20047;-75
2021/12/09 04:58:57;;;;;;;8.27;2.63;;;24.20;99.90;;;;;;5103599;28;20028;-69
2021/12/09 05:01:24;;;;;;;8.50;1.40;;;23.90;99.90;;;;;;5103442;28;20066;-67
2021/12/09 05:03:51;;;;;;;6.90;2.33;;;22.30;99.90;;;;;;5103995;28;20019;-66
2021/12/09 05:06:20;;;;;;;6.55;2.78;;;20.30;99.90;;;;;;5104679;28;20498;-67
2021/12/09 05:08:49;;;;;;;10.07;2.65;;;19.00;99.90;;;;;;5103610;28;20012;-64
2021/12/09 05:14:05;;;;;;;8.93;2.65;;;18.20;99.90;;;;;;5103387;28;20092;-67
2021/12/09 05:16:33;;;;;;;6.18;1.70;;;18.20;99.90;;;;;;5103303;28;20031;-64
2021/12/09 05:19:00;;;;;;;3.80;1.00;;;18.30;99.90;;;;;;5103269;28;20031;-66
2021/12/09 05:21:30;;;;;;;4.30;1.40;;;18.50;99.90;;;;;;5103231;28;20024;-66
2021/12/09 05:23:59;;;;;;;2.65;1.80;;;18.60;99.90;;;;;;5101025;28;20033;-65
2021/12/09 05:26:32;;;;;;;4.75;2.30;;;19.20;99.90;;;;;;5104079;28;20051;-64
2021/12/09 05:28:59;;;;;;;;;;;19.80;99.90;;;;;;5103670;28;20043;-66
2021/12/09 05:34:16;;;;;;;5.47;2.83;;;21.50;99.90;;;;;;5101205;28;20035;-64
2021/12/09 05:36:43;;;;;;;5.40;2.42;;;22.10;99.90;;;;;;5103665;28;20023;-64
2021/12/09 05:39:11;;;;;;;3.83;2.08;;;21.50;99.90;;;;;;5101839;28;20430;-66
2021/12/09 05:41:39;;;;;;;3.30;2.30;;;20.70;99.90;;;;;;5099645;28;20447;-67
2021/12/09 05:44:09;;;;;;;3.58;2.08;;;20.40;99.90;;;;;;5104858;22;20011;-68
2021/12/09 05:46:38;;;;;;;2.40;1.42;;;20.20;99.90;;;;;;5066054;28;20093;-65
2021/12/09 05:49:07;;;;;;;3.53;1.42;;;20.20;99.90;;;;;;5045221;28;20162;-67
2021/12/09 05:51:34;;;;;;;3.72;2.10;;;20.30;99.90;;;;;;5063603;28;20333;-68
2021/12/09 05:54:02;;;;;;;2.35;1.38;;;20.50;99.90;;;;;;5066729;28;20052;-66
2021/12/09 05:56:29;;;;;;;2.92;2.00;;;21.00;99.90;;;;;;5067061;28;20496;-65
2021/12/09 05:58:57;;;;;;;3.33;2.22;;;20.90;99.90;;;;;;5068027;28;20416;-67
2021/12/09 06:01:25;;;;;;;4.75;2.80;;;20.80;99.90;;;;;;5044437;28;20040;-67
2021/12/09 06:03:52;;;;;;;6.55;3.40;;;20.80;99.90;;;;;;5062434;28;20117;-68
2021/12/09 06:06:19;;;;;;;5.25;3.58;;;21.40;99.90;;;;;;5065398;28;20107;-64
2021/12/09 06:08:46;;;;;;;4.90;3.00;;;22.40;99.90;;;;;;5066754;28;20108;-64
2021/12/09 06:11:14;;;;;;;6.68;2.65;;;23.10;99.90;;;;;;5046599;28;20029;-64
2021/12/09 06:13:41;;;;;;;6.82;3.15;;;23.80;99.90;;;;;;5065443;28;20373;-68
2021/12/09 06:16:09;;;;;;;7.40;2.60;;;23.30;99.90;;;;;;5066025;28;20024;-67
2021/12/09 06:18:36;;;;;;;4.88;2.35;;;22.50;99.90;;;;;;5064900;28;20031;-65
2021/12/09 06:21:04;;;;;;;4.88;2.75;;;21.80;99.90;;;;;;5048333;28;20032;-67
2021/12/09 06:23:31;;;;;;;5.03;2.88;;;21.40;99.90;;;;;;5062086;28;20059;-68
2021/12/09 06:25:58;;;;;;;5.80;3.45;;;21.20;99.90;;;;;;5065236;28;20024;-65
2021/12/09 06:28:25;;;;;;;4.20;2.20;;;21.10;99.90;;;;;;5065262;28;20025;-65
2021/12/09 06:30:52;;;;;;;5.47;2.35;;;20.90;99.90;;;;;;5062258;28;20016;-67
2021/12/09 06:33:19;;;;;;;5.72;2.38;;;20.80;99.90;;;;;;5065348;28;20480;-64
2021/12/09 06:35:46;;;;;;;6.07;2.17;;;20.70;99.90;;;;;;5065004;28;20040;-66
2021/12/09 06:38:15;;;;;;;5.20;2.17;;;20.70;99.90;;;;;;5046461;28;20469;-65
2021/12/09 06:40:44;;;;;;;5.53;2.53;;;20.60;99.90;;;;;;5063215;28;20492;-64
2021/12/09 06:43:13;;;;;;;5.13;2.92;;;20.50;99.90;;;;;;5046433;28;20090;-67
2021/12/09 06:45:40;;;;;;;6.63;2.40;;;20.40;99.90;;;;;;5064643;28;20040;-65
2021/12/09 06:48:07;;;;;;;6.80;2.78;;;20.30;99.90;;;;;;5064515;28;20028;-64
2021/12/09 06:50:35;;;;;;;4.90;2.85;;;20.20;99.90;;;;;;5064847;28;20571;-66
2021/12/09 06:53:03;;;;;;;6.53;2.88;;;20.20;99.90;;;;;;5064145;28;20373;-67
2021/12/09 06:55:30;;;;;;;5.50;3.10;;;20.10;99.90;;;;;;5064805;28;20403;-68
2021/12/09 06:57:57;;;;;;;6.78;3.13;;;20.00;99.90;;;;;;5065650;28;20108;-65
2021/12/09 07:00:27;;;;;;;6.32;3.42;;;20.00;99.90;;;;;;5065736;28;20036;-66
2021/12/09 07:02:54;;;;;;;9.45;6.07;;;19.90;99.90;;;;;;5064310;28;20673;-66
2021/12/09 07:05:24;;;;;;;6.18;4.03;;;19.90;99.90;;;;;;5063653;28;20032;-66
2021/12/09 07:07:52;;;;;;;6.07;3.40;;;19.80;99.90;;;;;;5043539;28;20029;-68
2021/12/09 07:10:21;;;;;;;6.90;4.00;;;19.70;99.90;;;;;;5046767;28;20047;-66
2021/12/09 07:12:49;;;;;;;5.47;3.90;;;19.60;99.90;;;;;;5064678;28;20029;-70
2021/12/09 07:15:17;;;;;;;6.45;3.70;;;19.60;99.90;;;;;;5064876;28;20037;-67
2021/12/09 07:17:44;;;;;;;5.93;3.67;;;19.50;99.90;;;;;;5046347;28;20502;-70
2021/12/09 07:20:17;;;;;;;7.43;3.83;;;19.30;99.90;;;;;;5063935;28;20458;-70
2021/12/09 07:22:46;;;;;;;7.38;3.47;;;19.20;99.90;;;;;;5065228;28;20040;-72
2021/12/09 07:25:13;;;;;;;8.25;3.72;;;19.20;99.90;;;;;;5065436;28;20078;-67
2021/12/09 07:27:41;;;;;;;9.55;4.03;;;19.10;99.90;;;;;;5062957;28;20016;-72
2021/12/09 07:30:10;;;;;;;8.30;4.35;;;19.10;99.90;;;;;;5064944;28;20499;-69
2021/12/09 07:32:37;;;;;;;11.45;5.47;;;19.20;99.90;;;;;;5065724;28;20548;-68
2021/12/09 07:35:06;;;;;;;7.95;4.90;;;19.10;99.90;;;;;;5046968;28;20103;-69
2021/12/09 07:37:34;;;;;;;8.40;4.25;;;19.10;99.90;;;;;;5063791;28;20506;-68
2021/12/09 07:40:01;;;;;;;7.20;4.18;;;19.10;99.90;;;;;;5063642;28;20087;-69
2021/12/09 07:42:28;;;;;;;7.82;4.20;;;19.10;99.90;;;;;;5063308;28;20048;-67
2021/12/09 07:44:54;;;;;;;6.32;3.80;;;19.20;99.90;;;;;;5037248;28;20203;-68
2021/12/09 07:47:21;;;;;;;8.73;3.97;;;19.30;99.90;;;;;;5032974;28;20033;-64
2021/12/09 07:49:48;;;;;;;9.55;4.55;;;19.40;99.90;;;;;;5028824;28;20346;-70
2021/12/09 07:52:15;;;;;;;6.57;4.38;;;19.60;99.90;;;;;;5031851;28;20025;-67
2021/12/09 07:54:42;;;;;;;7.28;4.20;;;19.70;99.90;;;;;;5034331;28;20367;-68
2021/12/09 07:57:09;;;;;;;13.02;4.75;;;19.70;99.90;;;;;;5029292;28;20017;-70
2021/12/09 07:59:36;;;;;;;7.57;4.53;;;19.80;99.90;;;;;;5034605;28;20104;-67
2021/12/09 08:02:05;;;;;;;10.32;4.93;;;19.70;99.90;;;;;;5027116;28;20025;-71
2021/12/09 08:04:33;;;;;;;8.88;5.05;;;19.60;99.90;;;;;;5026657;28;20029;-69
2021/12/09 08:07:01;;;;;;;10.05;4.47;;;19.40;99.90;;;;;;5025715;28;20034;-69
2021/12/09 08:09:28;;;;;;;10.00;4.50;;;19.40;99.90;;;;;;5028611;28;20330;-69
2021/12/09 08:11:55;;;;;;;7.45;3.78;;;19.30;99.90;;;;;;5031867;28;20604;-68
2021/12/09 08:14:22;;;;;;;7.70;4.75;;;19.20;99.90;;;;;;5028358;28;20040;-70
2021/12/09 08:17:07;;;;;;;9.75;4.35;;;19.20;99.90;;;;;;5026318;28;20487;-68
2021/12/09 08:19:35;;;;;;;11.93;3.92;;;19.20;99.90;;;;;;5032282;28;20029;-67
2021/12/09 08:22:02;;;;;;;7.88;3.47;;;19.10;99.90;;;;;;5023423;28;20061;-72
2021/12/09 08:24:29;;;;;;;10.88;3.92;;;19.10;99.90;;;;;;5024148;28;20033;-67
2021/12/09 08:26:56;;;;;;;6.88;4.10;;;19.10;99.90;;;;;;5024499;28;20022;-65
2021/12/09 08:29:23;;;;;;;5.55;3.80;;;19.00;99.90;;;;;;5024805;28;20040;-68
2021/12/09 08:31:50;;;;;;;7.03;3.90;;;19.00;99.90;;;;;;5019313;28;20171;-67
2021/12/09 08:34:17;;;;;;;8.82;4.80;;;19.10;99.90;;;;;;5018777;28;20040;-67
2021/12/09 08:36:44;;;;;;;7.57;4.18;;;19.00;99.90;;;;;;5035360;28;20033;-65
2021/12/09 08:39:11;;;;;;;9.73;4.82;;;19.00;99.90;;;;;;5020475;28;20048;-66
2021/12/09 08:41:39;;;;;;;10.05;5.30;;;19.00;99.90;;;;;;5021893;28;20041;-65
2021/12/09 08:44:07;;;;;;;12.05;6.97;;;19.00;99.90;;;;;;5027555;28;20013;-68
2021/12/09 08:46:34;;;;;;;11.77;8.02;;;19.00;99.90;;;;;;5064677;28;20056;-68
2021/12/09 08:49:01;;;;;;;10.75;7.38;;;18.90;99.90;;;;;;5064502;28;20029;-69
2021/12/09 08:51:29;;;;;;;9.13;5.28;;;18.90;99.90;;;;;;5045914;28;20031;-65
2021/12/09 08:53:58;;;;;;;7.05;4.95;;;18.90;99.90;;;;;;5063307;28;20647;-65
2021/12/09 08:56:26;;;;;;;9.75;5.07;;;18.80;99.90;;;;;;5063939;28;20527;-68
2021/12/09 08:58:53;;;;;;;8.02;4.00;;;18.80;99.90;;;;;;5063470;28;20033;-67
2021/12/09 09:01:20;;;;;;;8.27;3.90;;;18.70;99.90;;;;;;5063375;28;20025;-67
2021/12/09 09:03:47;;;;;;;7.80;4.20;;;18.70;99.90;;;;;;5063575;28;20033;-68
2021/12/09 09:06:15;;;;;;;7.07;3.90;;;18.60;99.90;;;;;;5063591;28;20362;-68
2021/12/09 09:08:42;;;;;;;6.45;3.97;;;18.50;99.90;;;;;;5063383;28;20039;-70
2021/12/09 09:11:09;;;;;;;9.82;3.65;;;18.50;99.90;;;;;;5063349;28;20016;-67
2021/12/09 09:13:36;;;;;;;9.27;4.38;;;18.50;99.90;;;;;;5064388;28;20506;-69
2021/12/09 09:16:03;;;;;;;6.53;4.35;;;18.40;99.90;;;;;;5064001;28;20431;-66
2021/12/09 09:18:30;;;;;;;7.50;4.40;;;18.30;99.90;;;;;;5063238;28;20093;-70
2021/12/09 09:20:57;;;;;;;5.88;4.00;;;18.30;99.90;;;;;;5050066;28;20028;-70
2021/12/09 09:23:25;;;;;;;5.95;4.15;;;18.30;99.90;;;;;;5067550;28;20025;-70
2021/12/09 09:25:52;;;;;;;9.48;4.70;;;18.20;99.90;;;;;;5067244;28;20021;-68
2021/12/09 09:28:19;;;;;;;9.25;3.67;;;18.30;99.90;;;;;;5048560;28;20025;-70
2021/12/09 09:30:53;;;;;;;9.18;4.22;;;18.40;99.90;;;;;;5067018;28;20025;-71
2021/12/09 09:33:23;;;;;;;6.28;3.80;;;18.40;99.90;;;;;;5046675;28;20024;-67
2021/12/09 09:35:51;;;;;;;6.93;3.92;;;18.40;99.90;;;;;;5065529;28;20384;-71
2021/12/09 09:38:19;;;;;;;10.48;4.10;;;18.40;99.90;;;;;;5064446;28;20028;-70
2021/12/09 09:40:59;;;;;;;7.07;4.00;;;18.40;99.90;;;;;;5063028;28;20510;-69
2021/12/09 09:45:56;;;;;;;7.13;3.53;;;18.50;99.90;;;;;;5064641;28;20500;-71
2021/12/09 09:48:23;;;;;;;6.50;3.45;;;18.50;99.90;;;;;;5064625;28;20154;-71
2021/12/09 09:50:50;;;;;;;5.47;3.00;;;18.50;99.90;;;;;;5046061;28;20032;-67
2021/12/09 09:53:18;;;;;;;8.75;3.17;;;18.40;99.90;;;;;;5062114;28;20086;-65
2021/12/09 09:55:47;;;;;;;6.65;3.45;;;18.40;99.90;;;;;;5062525;28;20492;-70
2021/12/09 09:58:16;;;;;;;6.60;3.25;;;18.40;99.90;;;;;;5063278;28;20044;-70
2021/12/09 10:00:44;;;;;;;7.00;4.07;;;18.40;99.90;;;;;;5061432;28;20033;-67
2021/12/09 10:03:17;;;;;;;7.10;3.30;;;18.40;99.90;;;;;;5061821;28;20033;-68
2021/12/09 10:05:57;;;;;;;4.97;3.22;;;18.40;99.90;;;;;;5063732;28;20025;-68
2021/12/09 10:08:24;;;;;;;9.70;3.92;;;18.40;99.90;;;;;;5063883;28;20115;-67
2021/12/09 10:10:51;;;;;;;7.60;3.90;;;18.30;99.90;;;;;;5063214;28;20016;-73
2021/12/09 10:13:21;;;;;;;7.43;5.00;;;18.40;99.90;;;;;;5060554;28;20036;-69
2021/12/09 10:15:51;;;;;;;7.13;3.40;;;18.40;99.90;;;;;;5061456;28;20034;-67
2021/12/09 10:18:41;;;;;;;7.07;3.28;;;18.50;99.90;;;;;;5066865;28;20032;-68
2021/12/09 10:21:12;;;;;;;5.68;3.20;;;18.50;99.90;;;;;;5066015;28;20039;-70
2021/12/09 10:23:46;;;;;;;5.60;2.85;;;18.50;99.90;;;;;;5066443;28;20032;-71
2021/12/09 10:26:25;;;;;;;7.25;3.65;;;18.40;99.90;;;;;;5065344;28;20024;-69
2021/12/09 10:29:15;;;;;;;4.80;2.95;;;18.40;99.90;;;;;;5064829;28;20300;-69
2021/12/09 10:31:49;;;;;;;8.63;3.45;;;18.30;99.90;;;;;;5065722;28;20430;-72
2021/12/09 10:34:36;;;;;;;9.15;3.85;;;18.20;99.90;;;;;;5047995;28;20060;-68
2021/12/09 10:37:06;;;;;;;10.95;5.60;;;18.20;99.90;;;;;;5065209;28;20024;-67
2021/12/09 10:39:38;;;;;;;14.30;9.10;;;18.20;99.90;;;;;;5066065;28;20025;-70
2021/12/09 10:42:08;;;;;;;14.73;9.15;;;18.10;99.90;;;;;;5063256;28;20024;-65
2021/12/09 10:44:45;;;;;;;10.50;6.00;;;18.20;99.90;;;;;;5065961;28;20037;-71
2021/12/09 10:47:21;;;;;;;6.85;4.57;;;18.10;99.90;;;;;;5065953;28;20055;-68
2021/12/09 10:50:05;;;;;;;9.68;4.57;;;18.20;99.90;;;;;;5065300;28;20021;-72
2021/12/09 10:52:38;;;;;;;9.68;4.03;;;18.20;99.90;;;;;;5065243;28;20032;-69
2021/12/09 10:55:36;;;;;;;7.32;4.07;;;18.10;99.90;;;;;;5064968;28;20060;-69
2021/12/09 10:58:11;;;;;;;5.82;3.83;;;18.20;99.90;;;;;;5063652;28;20432;-70
2021/12/09 11:00:52;;;;;;;10.38;4.22;;;18.10;99.90;;;;;;5065953;28;20021;-70
2021/12/09 11:03:28;;;;;;;6.88;3.92;;;18.10;99.90;;;;;;5063750;28;20485;-68
2021/12/09 11:06:07;;;;;;;7.55;4.53;;;18.10;99.90;;;;;;5066068;28;20488;-67
2021/12/09 11:08:54;;;;;;;12.02;6.72;;;18.10;99.90;;;;;;5066970;28;20139;-68
2021/12/09 11:11:30;;;;;;;11.73;5.47;;;18.10;99.90;;;;;;5066947;28;20024;-66
2021/12/09 11:14:04;;;;;;;6.85;4.68;;;18.10;99.90;;;;;;5067183;28;20058;-67
2021/12/09 11:16:33;;;;;;;4.38;3.72;;;18.00;99.90;;;;;;5066019;28;20039;-69
2021/12/09 11:19:11;;;;;;;9.15;4.22;;;18.00;99.90;;;;;;5065345;28;20024;-68
2021/12/09 11:21:44;;;;;;;5.68;3.80;;;17.90;99.90;;;;;;5064565;28;20419;-69
2021/12/09 11:24:18;;;;;;;;;;;17.90;99.90;;;;;;5064440;28;20040;-70
2021/12/09 11:29:17;;;;;;;10.82;4.20;;;17.90;99.90;;;;;;5064389;28;20054;-67
2021/12/09 11:31:59;;;;;;;5.13;3.20;;;17.90;99.90;;;;;;5065509;28;20031;-68
2021/12/09 11:34:35;;;;;;;4.60;2.90;;;17.80;99.90;;;;;;5063907;28;20027;-68
2021/12/09 11:37:10;;;;;;;4.35;3.20;;;17.80;99.90;;;;;;5049135;28;20437;-71
2021/12/09 11:39:38;;;;;;;4.38;3.55;;;17.70;99.90;;;;;;5065408;28;20055;-67
2021/12/09 11:42:24;;;;;;;4.35;3.45;;;17.70;99.90;;;;;;5064184;28;20822;-68
2021/12/09 11:44:51;;;;;;;6.15;3.30;;;17.70;99.90;;;;;;5064515;28;20045;-70
2021/12/09 11:47:18;;;;;;;7.20;3.47;;;17.60;99.90;;;;;;5046618;28;20028;-70
2021/12/09 11:49:47;;;;;;;7.35;3.58;;;17.60;99.90;;;;;;5064752;28;20035;-70
2021/12/09 11:52:15;;;;;;;6.93;3.15;;;17.60;99.90;;;;;;5065827;28;20392;-69
2021/12/09 11:55:03;;;;;;;12.80;7.57;;;17.60;99.90;;;;;;5065787;28;20423;-71
2021/12/09 11:57:41;;;;;;;11.88;7.25;;;17.60;99.90;;;;;;5062374;28;20032;-72
2021/12/09 12:15:40;;;;;;;5.25;4.30;;;17.50;99.90;;;;;;5061784;28;20428;-68
2021/12/09 12:40:46;;;;;;;8.35;5.55;;;17.70;99.90;;;;;;5059076;28;20460;-70
2021/12/09 12:43:39;;;;;;;6.60;4.72;;;17.70;99.90;;;;;;5065249;28;20037;-68
2021/12/09 12:49:33;;;;;;;7.60;4.65;;;17.70;99.90;;;;;;5012460;28;20032;-68
2021/12/09 12:52:14;;;;;;;5.05;3.92;;;17.70;99.90;;;;;;5064148;28;20028;-64
2021/12/09 12:54:58;;;;;;;5.38;4.07;;;17.70;99.90;;;;;;5058089;28;20012;-70
2021/12/09 12:57:28;;;;;;;7.53;4.38;;;17.70;99.90;;;;;;5058308;28;20028;-67
2021/12/09 13:00:13;;;;;;;6.20;3.92;;;17.70;99.90;;;;;;5045666;28;20028;-70
2021/12/09 13:05:49;;;;;;;6.43;4.22;;;17.70;99.90;;;;;;5064165;28;20045;-68
2021/12/09 13:08:45;;;;;;;6.43;4.30;;;17.70;99.90;;;;;;5047087;28;20025;-73
2021/12/09 13:11:23;;;;;;;3.28;2.03;;;17.80;99.90;;;;;;5057618;28;20104;-66
2021/12/09 13:14:05;;;;;;;3.00;1.65;;;17.60;99.90;;;;;;5065865;28;20085;-70
2021/12/09 13:16:48;;;;;;;2.80;1.10;;;17.20;99.90;;;;;;5047013;28;20039;-71
2021/12/09 13:22:24;;;;;;;2.65;1.20;;;16.40;99.90;;;;;;5061772;28;20029;-67
2021/12/09 13:25:07;;;;;;;2.35;0.98;;;16.10;99.90;;;;;;5066637;28;20078;-65
2021/12/09 13:27:48;;;;;;;1.98;0.90;;;15.90;99.90;;;;;;5063678;28;20029;-66
2021/12/09 13:55:13;;;;;;;3.28;1.30;;;14.90;99.90;;;;;;5065620;28;20476;-66
2021/12/09 13:57:46;;;;;;;3.60;1.10;;;14.90;99.90;;;;;;5067270;28;20032;-65
2021/12/09 14:00:19;;;;;;;2.42;1.02;;;15.00;99.90;;;;;;5066303;28;20460;-65
2021/12/09 14:02:51;;;;;;;4.18;1.30;;;15.00;99.90;;;;;;5062934;28;20032;-69
2021/12/09 14:05:18;;;;;;;4.57;1.42;;;15.00;99.90;;;;;;5065633;28;20036;-67
2021/12/09 14:08:07;;;;;;;1.92;1.10;;;15.00;99.90;;;;;;5069550;28;20035;-65
2021/12/09 14:10:37;;;;;;;2.13;1.10;;;15.10;99.90;;;;;;5068877;28;20488;-68
2021/12/09 14:13:11;;;;;;;2.30;1.15;;;15.10;99.90;;;;;;5071395;28;20119;-68
2021/12/09 14:16:07;;;;;;;4.95;1.35;;;15.10;99.90;;;;;;5052361;28;20038;-65
2021/12/09 14:21:23;;;;;;;7.20;1.25;;;15.00;99.90;;;;;;5069810;28;20381;-68
2021/12/09 14:24:02;;;;;;;5.18;1.00;;;15.00;99.90;;;;;;5070747;28;20036;-69
2021/12/09 14:26:29;;;;;;;3.10;1.08;;;15.10;99.90;;;;;;5053375;28;20077;-69